Flight Track Log - Related Links

Times and Time Zones

All times are in EDT time to prevent confusion due to time zone crossing. See the SWA1377 flight status page for this flight to view local times or setup timezone preferences in your user account.


Time Position Orientation Groundspeed Altitude Reporting Facility
EDT Latitude Longitude Course Direction KTS MPH feet Rate Location/Type
Sat 11:14:24 AM 42.9500 -78.7167 142° Southeast 162 186 1,500  Level Buffalo TRACON
Sat 11:15:20 AM 42.9847 -78.6700 45° Northeast 173 199 3,300 2,034 Climbing Cleveland Center
Sat 11:16:22 AM 42.9344 -78.6256 147° Southeast 250 288 5,500 2,927 Climbing Cleveland Center
Sat 11:17:23 AM 42.8525 -78.6239 179° South 278 320 9,300 2,683 Climbing Cleveland Center
Sat 11:18:00 AM 42.0109 -78.1971 154° Southeast  Level Estimated
Sat 11:18:25 AM 42.7794 -78.6244 180° South 305 351 11,000  Level Cleveland Center
Sat 11:19:00 AM 41.9034 -78.3853 142° Southeast  Level FlightAware Approximate
Sat 11:19:26 AM 42.6503 -78.6239 180° South 381 438 14,400  Level Cleveland Center
Sat 11:20:28 AM 42.5372 -78.6253 181° South 405 466 16,800 2,341 Climbing Cleveland Center
Sat 11:21:29 AM 42.4189 -78.6261 180° South 420 483 19,200 2,244 Climbing Cleveland Center
Sat 11:22:31 AM 42.2931 -78.6186 177° South 444 511 21,400 2,000 Climbing Cleveland Center
Sat 11:23:32 AM 42.1892 -78.5081 142° Southeast 474 545 23,300 1,756 Climbing Cleveland Center
Sat 11:24:34 AM 42.0861 -78.3858 139° Southeast 489 563 25,000 823 Climbing Cleveland Center
Sat 11:25:36 AM 41.9589 -78.2364 139° Southeast 502 578 25,000  Level Cleveland Center
Sat 11:26:37 AM 41.8533 -78.1106 138° Southeast 505 581 25,000  Level Cleveland Center
Sat 11:27:39 AM 41.7489 -77.9864 138° Southeast 505 581 25,000  Level Cleveland Center
Sat 11:28:40 AM 41.6439 -77.8625 139° Southeast 505 581 25,000  Level Cleveland Center
Sat 11:29:42 AM 41.5392 -77.7397 139° Southeast 505 581 25,000 -146 Level Cleveland Center
Sat 11:30:43 AM 41.4339 -77.6183 139° Southeast 504 580 24,700 -738 Descending Cleveland Center
Sat 11:31:44 AM 41.3336 -77.5044 140° Southeast 482 555 23,500 -1,707 Descending Cleveland Center
Sat 11:32:46 AM 41.2400 -77.3958 139° Southeast 455 524 21,200 -2,323 Descending Cleveland Center
Sat 11:33:48 AM 41.1303 -77.2692 139° Southeast 438 504 18,700 -2,293 Descending Cleveland Center
Sat 11:34:49 AM 41.0422 -77.1686 139° Southeast 424 488 16,500 -1,805 Descending Cleveland Center
Sat 11:35:51 AM 40.9583 -77.0742 140° Southeast 405 466 15,000 -726 Descending Cleveland Center
Sat 11:36:53 AM 40.8772 -76.9872 141° Southeast 404 465 15,000  Level New York Center
Sat 11:37:52 AM 40.7869 -76.8831 139° Southeast 399 459 15,000  Level New York Center
Sat 11:38:53 AM 40.7044 -76.7828 137° Southeast 399 459 15,000  Level New York Center
Sat 11:39:53 AM 40.6339 -76.6972 137° Southeast 394 453 15,000  Level New York Center
Sat 11:40:52 AM 40.5436 -76.5828 136° Southeast 394 453 15,000  Level New York Center
Sat 11:41:51 AM 40.4864 -76.4744 125° Southeast 394 453 15,000  Level New York Center
Sat 11:42:53 AM 40.3778 -76.4328 164° South 370 426 15,000 -248 Level New York Center
Sat 11:43:52 AM 40.2706 -76.4511 187° South 375 432 14,500 -800 Descending New York Center
Sat 11:44:53 AM 40.1678 -76.4672 187° South 383 441 13,400 -1,050 Descending New York Center
Sat 11:45:52 AM 40.0794 -76.4844 188° South 378 435 12,400 -462 Descending New York Center
Sat 11:47:55 AM 39.8667 -76.5333 190° South 345 397 12,000 -147 Descending Potomac TRACON
Sat 11:48:35 AM 39.8281 -76.5511 199° South 345 397 12,000 -808 Level Washington Center
Sat 11:49:39 AM 39.7267 -76.6083 203° Southwest 334 384 10,600 -1,333 Descending Washington Center
Sat 11:51:44 AM 39.5722 -76.6908 202° Southwest 303 349 7,800 -1,362 Descending Washington Center
Sat 11:52:44 AM 39.4983 -76.7311 203° Southwest 294 338 6,400 -1,258 Descending Washington Center
Sat 11:53:48 AM 39.4278 -76.7714 204° Southwest 285 328 5,200 -1,200 Descending Washington Center
Sat 11:54:49 AM 39.3667 -76.8256 214° Southwest 276 318 3,900 -1,065 Descending Washington Center
Sat 11:55:52 AM 39.2922 -76.8789 209° Southwest 273 314 3,000 -484 Descending Washington Center
Sat 11:56:53 AM 39.2311 -76.9081 200° South 250 288 2,900 -480 Descending Washington Center
Sat 11:57:57 AM 39.1878 -76.8633 141° Southeast 240 276 2,000 -545 Descending Washington Center
Sat 11:58:43 AM 39.1833 -76.8000 95° East 177 204 1,900 -509 Descending Potomac TRACON
Sat 11:59:43 AM 39.1833 -76.7500 90° East 141 162 1,100 -750 Descending Potomac TRACON
Sat 12:00:43 PM 39.1833 -76.7000 90° East 136 157 400 -700 Descending Potomac TRACON
Sat 12:03:00 PM 39.1667 -76.6667 270° West  Level FlightAware Approximate

Login

Don't have an account? Register now (free) for customized features, flight alerts, and more!